MROC/SJO METAR and TAF weather

Enter ICAO airport designator
Station Type Date Time Source
MROC METAR 2022/01/26 08:00 UTC NOAA

MROC 260800Z 08013KT CAVOK 19/14 A2996 NOSIG


Station Type Date Time Source
MROC Decoded METAR 2022/01/26 08:00 UTC NOAA

Juan Santamaria, Costa Rica (MROC) 10-00N 084-13W 939M
Jan 26, 2022 - 03:00 AM EST / 2022.01.26 0800 UTC
Wind: from the E (080 degrees) at 15 MPH (13 KT):0
Visibility: greater than 7 mile(s):0
Temperature: 66 F (19 C)
Dew Point: 57 F (14 C)
Relative Humidity: 72%
Pressure (altimeter): 29.96 in. Hg (1014 hPa)
ob: MROC 260800Z 08013KT CAVOK 19/14 A2996 NOSIG
cycle: 8

Station Type Date Time Source
MROC TAF 2022/01/26 06:03 UTC NOAA

TAF MROC 260500Z 2606/2706 09010KT 9999 FEW040 TX30/2619Z TN17/2610Z
TEMPO 2618/2624 25007KT

Example: see airport list